createdAt,value
2023-04-03T00:00:42.826Z,44.94
2023-04-03T00:03:09.796Z,45.25
2023-04-03T00:05:37.015Z,45.19
2023-04-03T00:08:04.224Z,44.76
2023-04-03T00:10:31.017Z,44.85
2023-04-03T00:12:57.860Z,45.07
2023-04-03T00:15:24.709Z,45.03
2023-04-03T00:17:51.662Z,45.24
2023-04-03T00:20:21.615Z,45.07
2023-04-03T00:22:48.534Z,45.05
2023-04-03T00:25:15.736Z,45.16
2023-04-03T00:27:42.654Z,44.77
2023-04-03T00:30:18.416Z,44.85
2023-04-03T00:32:45.280Z,44.89
2023-04-03T00:35:12.424Z,45.07
2023-04-03T00:37:39.406Z,44.91
2023-04-03T00:40:07.019Z,44.88
2023-04-03T00:42:33.858Z,45.02
2023-04-03T00:45:02.156Z,45.10
2023-04-03T00:47:29.995Z,45.07
2023-04-03T00:49:56.837Z,45.10
2023-04-03T00:52:26.682Z,45.05
2023-04-03T00:54:58.396Z,44.97
2023-04-03T00:57:25.357Z,44.97
2023-04-03T00:59:53.374Z,45.06
2023-04-03T01:02:20.188Z,44.87
2023-04-03T01:04:50.189Z,45.16
2023-04-03T01:07:18.658Z,45.01
2023-04-03T01:09:46.146Z,44.97
2023-04-03T01:12:17.598Z,45.02
2023-04-03T01:14:45.306Z,44.88
2023-04-03T01:17:22.391Z,45.13
2023-04-03T01:19:55.548Z,44.90
2023-04-03T01:22:31.141Z,45.06
2023-04-03T01:24:57.996Z,45.09
2023-04-03T01:27:24.835Z,45.19
2023-04-03T01:29:51.827Z,44.98
2023-04-03T01:32:18.658Z,44.83
2023-04-03T01:34:45.481Z,44.92
2023-04-03T01:37:12.265Z,45.05
2023-04-03T01:39:39.091Z,44.75
2023-04-03T01:42:06.912Z,44.86
2023-04-03T01:44:33.753Z,44.72
2023-04-03T01:47:00.546Z,44.86
2023-04-03T01:49:27.349Z,44.96
2023-04-03T01:51:54.183Z,45.08
2023-04-03T01:54:21.086Z,44.70
2023-04-03T01:56:47.871Z,44.92
2023-04-03T01:59:19.124Z,44.88
2023-04-03T02:01:46.546Z,44.79
2023-04-03T02:04:13.788Z,44.95
2023-04-03T02:06:41.007Z,44.75
2023-04-03T02:09:08.207Z,45.09
2023-04-03T02:11:35.020Z,44.98
2023-04-03T02:14:01.841Z,44.95
2023-04-03T02:16:30.099Z,45.12
2023-04-03T02:18:56.981Z,44.96
2023-04-03T02:21:26.157Z,44.88
2023-04-03T02:23:52.969Z,45.13
2023-04-03T02:26:19.780Z,44.80
2023-04-03T02:28:47.073Z,44.86
2023-04-03T02:31:14.438Z,44.71
2023-04-03T02:33:41.481Z,44.73
2023-04-03T02:36:09.036Z,45.00
2023-04-03T02:38:36.593Z,45.01
2023-04-03T02:41:05.010Z,44.78
2023-04-03T02:43:31.876Z,44.62
2023-04-03T02:45:58.773Z,45.04
2023-04-03T02:48:25.961Z,44.62
2023-04-03T02:50:52.910Z,44.75
2023-04-03T02:53:20.275Z,44.89
2023-04-03T02:55:47.502Z,44.56
2023-04-03T02:58:14.311Z,44.66
2023-04-03T03:00:41.465Z,44.90
2023-04-03T03:03:08.416Z,44.78
2023-04-03T03:05:35.355Z,44.52
2023-04-03T03:08:02.154Z,44.72
2023-04-03T03:10:28.992Z,44.86
2023-04-03T03:12:55.821Z,44.67
2023-04-03T03:15:22.630Z,44.81
2023-04-03T03:17:49.546Z,44.94
2023-04-03T03:20:16.805Z,44.91
2023-04-03T03:22:43.659Z,44.62
2023-04-03T03:25:10.708Z,44.63
2023-04-03T03:27:37.592Z,44.46
2023-04-03T03:30:05.001Z,44.65
2023-04-03T03:32:31.863Z,44.79
2023-04-03T03:34:58.673Z,44.79
2023-04-03T03:37:25.757Z,44.74
2023-04-03T03:39:52.605Z,44.68
2023-04-03T03:42:19.518Z,44.87
2023-04-03T03:44:46.652Z,44.64
2023-04-03T03:47:13.512Z,44.76
2023-04-03T03:49:40.347Z,44.67
2023-04-03T03:52:07.201Z,44.66
2023-04-03T03:54:34.013Z,44.67
2023-04-03T03:57:00.831Z,44.90
2023-04-03T03:59:27.738Z,44.87
2023-04-03T04:01:54.573Z,44.80
2023-04-03T04:04:21.770Z,44.50
2023-04-03T04:06:48.714Z,44.62
2023-04-03T04:09:15.530Z,44.81
2023-04-03T04:11:42.491Z,44.56
2023-04-03T04:14:11.647Z,44.67
2023-04-03T04:16:38.552Z,44.61
2023-04-03T04:19:07.603Z,44.75
2023-04-03T04:21:38.715Z,44.64
2023-04-03T04:24:05.711Z,44.79
2023-04-03T04:26:32.714Z,44.74
2023-04-03T04:28:59.611Z,44.85
2023-04-03T04:31:26.704Z,44.72
2023-04-03T04:33:53.790Z,44.59
2023-04-03T04:36:21.107Z,44.91
2023-04-03T04:38:48.069Z,44.68
2023-04-03T04:41:14.965Z,44.76
2023-04-03T04:43:42.357Z,44.61
2023-04-03T04:46:13.462Z,44.80
2023-04-03T04:48:40.324Z,44.69
2023-04-03T04:51:07.146Z,44.86
2023-04-03T04:53:34.319Z,44.74
2023-04-03T04:56:01.147Z,44.76
2023-04-03T04:58:27.958Z,44.51
2023-04-03T05:01:04.879Z,44.72
2023-04-03T05:03:31.700Z,44.56
2023-04-03T05:05:58.690Z,44.60
2023-04-03T05:08:25.538Z,44.64
2023-04-03T05:10:54.234Z,44.48
2023-04-03T05:13:22.412Z,44.84
2023-04-03T05:15:49.296Z,44.49
2023-04-03T05:18:16.368Z,44.86
2023-04-03T05:20:44.697Z,44.74
2023-04-03T05:23:12.605Z,44.90
2023-04-03T05:25:39.990Z,44.55
2023-04-03T05:28:07.024Z,44.48
2023-04-03T05:30:34.086Z,44.90
2023-04-03T05:33:01.191Z,44.68
2023-04-03T05:35:28.051Z,44.91
2023-04-03T05:37:55.840Z,44.87
2023-04-03T05:40:22.905Z,44.96
2023-04-03T05:42:49.759Z,44.86
2023-04-03T05:45:18.949Z,44.71
2023-04-03T05:47:46.084Z,44.62
2023-04-03T05:50:13.386Z,44.49
2023-04-03T05:52:44.301Z,44.78
2023-04-03T05:55:11.423Z,44.74
2023-04-03T05:57:38.303Z,44.64
2023-04-03T06:00:07.634Z,44.63
2023-04-03T06:02:34.563Z,44.62
2023-04-03T06:05:01.929Z,44.64
2023-04-03T06:07:29.779Z,44.58
2023-04-03T06:09:57.254Z,44.77
2023-04-03T06:12:24.204Z,44.88
2023-04-03T06:14:51.473Z,44.52
2023-04-03T06:17:19.461Z,44.66
2023-04-03T06:19:47.055Z,44.94
2023-04-03T06:22:14.283Z,44.88
2023-04-03T06:24:41.564Z,44.62
2023-04-03T06:27:08.684Z,44.50
2023-04-03T06:29:35.639Z,44.79
2023-04-03T06:32:02.517Z,44.42
2023-04-03T06:34:29.461Z,44.77
2023-04-03T06:36:56.547Z,44.46
2023-04-03T06:39:24.090Z,44.92
2023-04-03T06:41:52.162Z,44.79
2023-04-03T06:44:19.107Z,44.79
2023-04-03T06:46:47.728Z,44.82
2023-04-03T06:49:14.668Z,44.88
2023-04-03T06:51:41.569Z,44.61
2023-04-03T06:54:09.542Z,44.76
2023-04-03T06:56:36.436Z,44.92
2023-04-03T06:59:03.904Z,44.58
2023-04-03T07:01:32.194Z,44.92
2023-04-03T07:03:59.300Z,44.86
2023-04-03T07:06:28.315Z,44.52
2023-04-03T07:08:58.169Z,44.70
2023-04-03T07:11:25.443Z,44.64
2023-04-03T07:13:52.465Z,44.82
2023-04-03T07:16:19.657Z,44.59
2023-04-03T07:18:47.299Z,44.59
2023-04-03T07:21:14.448Z,44.67
2023-04-03T07:23:41.411Z,44.66
2023-04-03T07:26:09.462Z,45.08
2023-04-03T07:28:38.003Z,45.01
2023-04-03T07:31:07.568Z,44.75
2023-04-03T07:33:34.840Z,44.61
2023-04-03T07:36:05.562Z,44.93
2023-04-03T07:38:32.735Z,44.74
2023-04-03T07:40:59.734Z,45.00
2023-04-03T07:43:27.889Z,44.87
2023-04-03T07:45:55.637Z,44.85
2023-04-03T07:48:23.945Z,45.09
2023-04-03T07:50:51.149Z,44.85
2023-04-03T07:53:18.556Z,44.85
2023-04-03T07:55:49.228Z,45.01
2023-04-03T07:58:18.451Z,44.88
2023-04-03T08:00:45.572Z,45.02
2023-04-03T08:03:12.938Z,45.10
2023-04-03T08:05:41.205Z,45.08
2023-04-03T08:08:12.538Z,44.88
2023-04-03T08:10:39.941Z,45.08
2023-04-03T08:13:07.570Z,45.05
2023-04-03T08:15:34.636Z,44.82
2023-04-03T08:18:02.249Z,44.96
2023-04-03T08:20:29.567Z,44.93
2023-04-03T08:22:56.588Z,44.75
2023-04-03T08:25:23.608Z,44.91
2023-04-03T08:27:50.628Z,45.04
2023-04-03T08:30:18.048Z,44.97
2023-04-03T08:32:45.739Z,45.24
2023-04-03T08:35:12.916Z,45.26
2023-04-03T08:37:40.319Z,44.83
2023-04-03T08:40:09.233Z,44.83
2023-04-03T08:42:48.871Z,45.09
2023-04-03T08:45:18.842Z,44.99
2023-04-03T08:47:52.143Z,45.22
2023-04-03T08:50:23.290Z,45.36
2023-04-03T08:52:52.925Z,45.09
2023-04-03T08:55:25.121Z,45.26
2023-04-03T08:57:55.852Z,45.13
2023-04-03T09:00:25.387Z,45.09
2023-04-03T09:02:55.737Z,45.26
2023-04-03T09:05:31.956Z,45.20
2023-04-03T09:08:09.116Z,45.03
2023-04-03T09:10:39.048Z,45.30
2023-04-03T09:13:09.818Z,45.02
2023-04-03T09:15:39.398Z,45.08
2023-04-03T09:18:07.204Z,45.43
2023-04-03T09:20:37.519Z,45.50
2023-04-03T09:23:14.161Z,45.29
2023-04-03T09:25:41.252Z,45.25
2023-04-03T09:28:11.319Z,45.29
2023-04-03T09:30:39.729Z,45.37
2023-04-03T09:33:08.490Z,45.57
2023-04-03T09:35:47.255Z,45.36
2023-04-03T09:38:15.650Z,45.07
2023-04-03T09:40:42.858Z,45.50
2023-04-03T09:43:19.070Z,45.30
2023-04-03T09:45:47.285Z,44.91
2023-04-03T09:48:16.231Z,44.97
2023-04-03T09:50:54.264Z,45.25
2023-04-03T09:53:34.076Z,45.22
2023-04-03T09:56:01.898Z,45.37
2023-04-03T09:58:42.624Z,45.43
2023-04-03T10:01:24.158Z,45.36
2023-04-03T10:04:04.521Z,44.97
2023-04-03T10:06:32.917Z,45.39
2023-04-03T10:09:02.371Z,45.19
2023-04-03T10:11:29.330Z,45.34
2023-04-03T10:13:58.017Z,45.09
2023-04-03T10:16:28.829Z,45.07
2023-04-03T10:19:05.377Z,45.09
2023-04-03T10:21:32.694Z,44.85
2023-04-03T10:23:59.848Z,44.93
2023-04-03T10:26:33.028Z,45.07
2023-04-03T10:29:09.753Z,45.39
2023-04-03T10:31:39.888Z,45.12
2023-04-03T10:34:12.024Z,45.24
2023-04-03T10:36:47.606Z,44.91
2023-04-03T10:39:26.362Z,45.37
2023-04-03T10:42:16.036Z,45.13
2023-04-03T10:44:53.931Z,45.19
2023-04-03T10:47:23.577Z,44.94
2023-04-03T10:50:00.055Z,45.22
2023-04-03T10:52:35.880Z,45.39
2023-04-03T10:55:13.103Z,45.03
2023-04-03T10:57:41.615Z,44.81
2023-04-03T11:00:19.689Z,44.81
2023-04-03T11:02:52.517Z,45.09
2023-04-03T11:05:28.260Z,45.15
2023-04-03T11:07:57.320Z,45.19
2023-04-03T11:10:31.507Z,45.24
2023-04-03T11:13:04.347Z,44.99
2023-04-03T11:15:34.604Z,45.17
2023-04-03T11:18:05.860Z,44.58
2023-04-03T11:20:35.634Z,44.82
2023-04-03T11:23:05.365Z,44.81
2023-04-03T11:25:34.307Z,44.80
2023-04-03T11:28:03.193Z,44.77
2023-04-03T11:30:33.278Z,44.85
2023-04-03T11:33:10.059Z,44.54
2023-04-03T11:35:38.269Z,44.68
2023-04-03T11:38:07.862Z,44.60
2023-04-03T11:40:36.510Z,44.56
2023-04-03T11:43:03.739Z,44.29
2023-04-03T11:45:36.148Z,44.26
2023-04-03T11:48:23.186Z,44.07
2023-04-03T11:50:51.728Z,44.12
2023-04-03T11:53:21.494Z,44.26
2023-04-03T11:55:49.716Z,44.25
2023-04-03T11:58:19.448Z,44.33
2023-04-03T12:00:47.941Z,44.22
2023-04-03T12:03:28.175Z,43.90
2023-04-03T12:05:56.359Z,44.33
2023-04-03T12:08:33.174Z,44.19
2023-04-03T12:11:09.820Z,44.13
2023-04-03T12:13:37.944Z,44.01
2023-04-03T12:16:05.902Z,43.94
2023-04-03T12:18:34.021Z,43.97
2023-04-03T12:21:01.644Z,43.84
2023-04-03T12:23:28.894Z,43.65
2023-04-03T12:26:04.505Z,43.79
2023-04-03T12:28:32.673Z,43.78
2023-04-03T12:31:03.298Z,43.83
2023-04-03T12:33:31.026Z,43.77
2023-04-03T12:36:06.311Z,43.97
2023-04-03T12:38:35.663Z,43.98
2023-04-03T12:41:11.727Z,43.84
2023-04-03T12:43:47.949Z,43.93
2023-04-03T12:46:24.800Z,44.17
2023-04-03T12:48:55.022Z,43.78
2023-04-03T12:51:31.784Z,43.94
2023-04-03T12:54:03.471Z,43.77
2023-04-03T12:56:33.370Z,43.63
2023-04-03T12:59:09.745Z,44.10
2023-04-03T13:01:37.119Z,43.74
2023-04-03T13:04:05.589Z,43.92
2023-04-03T13:06:39.617Z,43.77
2023-04-03T13:09:07.774Z,43.79
2023-04-03T13:11:37.843Z,43.77
2023-04-03T13:14:07.254Z,44.04
2023-04-03T13:16:35.133Z,43.78
2023-04-03T13:19:02.283Z,43.78
2023-04-03T13:21:30.367Z,43.71
2023-04-03T13:24:13.883Z,43.77
2023-04-03T13:26:43.187Z,43.81
2023-04-03T13:29:24.242Z,43.87
2023-04-03T13:31:58.057Z,43.82
2023-04-03T13:34:27.319Z,43.76
2023-04-03T13:36:55.472Z,44.05
2023-04-03T13:39:24.726Z,43.83
2023-04-03T13:41:52.864Z,43.67
2023-04-03T13:44:23.003Z,43.60
2023-04-03T13:46:52.099Z,43.61
2023-04-03T13:49:20.501Z,43.65
2023-04-03T13:51:54.160Z,43.77
2023-04-03T13:54:33.648Z,43.57
2023-04-03T13:57:01.767Z,43.77
2023-04-03T13:59:30.502Z,43.75
2023-04-03T14:02:04.689Z,43.94
2023-04-03T14:04:33.624Z,43.95
2023-04-03T14:07:00.835Z,44.00
2023-04-03T14:09:28.698Z,43.80
2023-04-03T14:11:57.549Z,43.66
2023-04-03T14:14:27.884Z,43.58
2023-04-03T14:16:57.036Z,43.55
2023-04-03T14:19:25.813Z,43.74
2023-04-03T14:21:53.965Z,43.73
2023-04-03T14:24:21.080Z,43.77
2023-04-03T14:26:48.985Z,43.83
2023-04-03T14:29:16.119Z,43.65
2023-04-03T14:31:44.549Z,43.62
2023-04-03T14:34:12.902Z,43.66
2023-04-03T14:36:40.660Z,43.93
2023-04-03T14:39:08.182Z,44.09
2023-04-03T14:41:35.217Z,43.69
2023-04-03T14:44:02.515Z,43.99
2023-04-03T14:46:48.282Z,43.74
2023-04-03T14:49:21.952Z,44.21
2023-04-03T14:51:49.062Z,44.19
2023-04-03T14:54:17.606Z,44.05
2023-04-03T14:56:45.990Z,43.79
2023-04-03T14:59:14.146Z,44.14
2023-04-03T15:01:41.232Z,43.81
2023-04-03T15:04:18.116Z,44.09
2023-04-03T15:06:45.244Z,44.06
2023-04-03T15:09:20.313Z,43.89
2023-04-03T15:11:47.338Z,44.03
2023-04-03T15:14:16.740Z,43.98
2023-04-03T15:16:51.541Z,44.28
2023-04-03T15:19:18.519Z,44.19
2023-04-03T15:21:45.572Z,44.14
2023-04-03T15:24:12.988Z,44.04
2023-04-03T15:26:40.274Z,43.98
2023-04-03T15:29:07.430Z,44.40
2023-04-03T15:31:34.829Z,44.09
2023-04-03T15:34:01.908Z,44.24
2023-04-03T15:36:33.992Z,43.93
2023-04-03T15:39:01.851Z,44.16
2023-04-03T15:41:29.013Z,43.99
2023-04-03T15:43:55.956Z,44.18
2023-04-03T15:46:23.028Z,43.93
2023-04-03T15:48:51.045Z,44.06
2023-04-03T15:51:18.042Z,43.97
2023-04-03T15:53:45.256Z,44.13
2023-04-03T15:56:13.295Z,44.36
2023-04-03T15:58:40.342Z,43.93
2023-04-03T16:01:07.527Z,44.25
2023-04-03T16:03:34.944Z,44.08
2023-04-03T16:06:02.626Z,43.94
2023-04-03T16:08:29.660Z,44.21
2023-04-03T16:10:56.645Z,44.34
2023-04-03T16:13:23.613Z,44.45
2023-04-03T16:15:50.921Z,44.25
2023-04-03T16:18:19.833Z,44.39
2023-04-03T16:20:46.844Z,44.56
2023-04-03T16:23:14.084Z,44.48
2023-04-03T16:25:41.263Z,44.60
2023-04-03T16:28:08.418Z,44.50
2023-04-03T16:30:35.706Z,44.25
2023-04-03T16:33:02.945Z,44.32
2023-04-03T16:35:31.177Z,44.28
2023-04-03T16:37:58.143Z,44.20
2023-04-03T16:40:25.236Z,44.32
2023-04-03T16:42:52.361Z,44.20
2023-04-03T16:45:19.417Z,44.28
2023-04-03T16:47:46.479Z,44.51
2023-04-03T16:50:13.530Z,44.23
2023-04-03T16:52:40.822Z,44.45
2023-04-03T16:55:08.095Z,44.69
2023-04-03T16:57:35.068Z,44.62
2023-04-03T17:00:02.093Z,44.46
2023-04-03T17:02:29.267Z,44.47
2023-04-03T17:04:56.486Z,44.50
2023-04-03T17:07:24.290Z,44.26
2023-04-03T17:09:54.875Z,44.17
2023-04-03T17:12:22.762Z,44.45
2023-04-03T17:14:50.022Z,44.46
2023-04-03T17:17:20.149Z,44.48
2023-04-03T17:19:47.255Z,44.67
2023-04-03T17:22:14.249Z,44.24
2023-04-03T17:24:41.402Z,44.15
2023-04-03T17:27:08.377Z,44.49
2023-04-03T17:29:37.667Z,44.23
2023-04-03T17:32:05.048Z,44.36
2023-04-03T17:34:32.152Z,44.12
2023-04-03T17:36:59.093Z,44.15
2023-04-03T17:39:26.112Z,43.87
2023-04-03T17:41:55.371Z,44.05
2023-04-03T17:44:22.606Z,43.83
2023-04-03T17:46:49.619Z,43.96
2023-04-03T17:49:19.155Z,43.83
2023-04-03T17:51:46.122Z,43.70
2023-04-03T17:54:14.965Z,44.00
2023-04-03T17:56:48.106Z,43.72
2023-04-03T17:59:16.592Z,43.79
2023-04-03T18:01:44.837Z,43.72
2023-04-03T18:04:12.355Z,43.87
2023-04-03T18:06:39.560Z,43.82
2023-04-03T18:09:09.523Z,43.92
2023-04-03T18:11:36.748Z,44.19
2023-04-03T18:14:08.073Z,44.19
2023-04-03T18:16:35.516Z,43.98
2023-04-03T18:19:21.356Z,44.12
2023-04-03T18:21:49.924Z,43.84
2023-04-03T18:24:18.513Z,43.99
2023-04-03T18:26:47.181Z,43.82
2023-04-03T18:29:14.724Z,43.94
2023-04-03T18:31:44.362Z,43.95
2023-04-03T18:34:12.426Z,43.80
2023-04-03T18:36:39.428Z,44.10
2023-04-03T18:39:06.945Z,43.74
2023-04-03T18:41:35.805Z,43.90
2023-04-03T18:44:04.183Z,43.67
2023-04-03T18:46:32.565Z,44.07
2023-04-03T18:48:59.786Z,44.05
2023-04-03T18:51:26.932Z,43.93
2023-04-03T18:53:53.958Z,43.80
2023-04-03T18:56:22.455Z,43.75
2023-04-03T18:58:49.782Z,44.10
2023-04-03T19:01:17.164Z,43.71
2023-04-03T19:03:44.359Z,43.82
2023-04-03T19:06:11.566Z,43.83
2023-04-03T19:08:41.131Z,44.11
2023-04-03T19:11:08.225Z,43.90
2023-04-03T19:13:35.445Z,44.08
2023-04-03T19:16:02.967Z,43.81
2023-04-03T19:18:30.291Z,43.63
2023-04-03T19:20:57.878Z,44.10
2023-04-03T19:23:25.145Z,43.70
2023-04-03T19:26:00.314Z,43.78
2023-04-03T19:28:27.489Z,43.94
2023-04-03T19:30:54.779Z,43.88
2023-04-03T19:33:21.874Z,43.95
2023-04-03T19:35:48.821Z,43.88
2023-04-03T19:38:15.898Z,43.71
2023-04-03T19:40:44.291Z,43.95
2023-04-03T19:43:13.475Z,43.73
2023-04-03T19:45:41.462Z,43.86
2023-04-03T19:48:09.005Z,43.92
2023-04-03T19:50:36.381Z,43.57
2023-04-03T19:53:03.730Z,43.75
2023-04-03T19:55:32.053Z,44.01
2023-04-03T19:58:00.214Z,43.88
2023-04-03T20:00:28.916Z,44.03
2023-04-03T20:02:56.019Z,43.95
2023-04-03T20:05:23.832Z,43.96
2023-04-03T20:07:50.962Z,43.71
2023-04-03T20:10:18.238Z,43.82
2023-04-03T20:12:45.440Z,43.70
2023-04-03T20:15:12.658Z,43.47
2023-04-03T20:17:41.202Z,43.79
2023-04-03T20:20:08.982Z,43.71
2023-04-03T20:22:37.254Z,43.91
2023-04-03T20:25:06.658Z,43.43
2023-04-03T20:27:35.125Z,43.59
2023-04-03T20:30:04.423Z,43.89
2023-04-03T20:32:32.316Z,43.45
2023-04-03T20:35:04.456Z,43.65
2023-04-03T20:37:32.045Z,43.75
2023-04-03T20:39:59.092Z,43.61
2023-04-03T20:42:26.636Z,43.74
2023-04-03T20:44:53.739Z,43.52
2023-04-03T20:47:20.760Z,43.71
2023-04-03T20:49:47.922Z,43.94
2023-04-03T20:52:15.028Z,43.72
2023-04-03T20:54:42.171Z,43.88
2023-04-03T20:57:09.092Z,43.39
2023-04-03T20:59:37.335Z,43.50
2023-04-03T21:02:04.299Z,43.74
2023-04-03T21:04:32.608Z,43.75
2023-04-03T21:07:11.264Z,43.54
2023-04-03T21:09:48.577Z,43.77
2023-04-03T21:12:24.750Z,43.39
2023-04-03T21:15:02.206Z,43.67
2023-04-03T21:17:29.217Z,43.60
2023-04-03T21:19:56.197Z,43.29
2023-04-03T21:22:23.138Z,43.54
2023-04-03T21:24:50.082Z,43.46
2023-04-03T21:27:17.087Z,43.44
2023-04-03T21:29:44.121Z,43.49
2023-04-03T21:32:11.248Z,43.80
2023-04-03T21:34:38.199Z,43.61
2023-04-03T21:37:06.733Z,43.46
2023-04-03T21:39:33.961Z,43.49
2023-04-03T21:42:01.027Z,43.62
2023-04-03T21:44:28.792Z,43.64
2023-04-03T21:47:00.199Z,43.29
2023-04-03T21:49:27.595Z,43.63
2023-04-03T21:51:54.781Z,43.54
2023-04-03T21:54:21.757Z,43.55
2023-04-03T21:56:49.821Z,43.54
2023-04-03T21:59:16.867Z,43.29
2023-04-03T22:01:44.021Z,43.58
2023-04-03T22:04:11.407Z,43.36
2023-04-03T22:06:38.464Z,43.33
2023-04-03T22:09:05.555Z,43.43
2023-04-03T22:11:33.057Z,43.38
2023-04-03T22:14:00.598Z,43.54
2023-04-03T22:16:27.895Z,43.54
2023-04-03T22:18:55.383Z,43.59
2023-04-03T22:21:22.562Z,43.60
2023-04-03T22:23:49.633Z,43.58
2023-04-03T22:26:16.937Z,43.43
2023-04-03T22:28:45.664Z,43.37
2023-04-03T22:31:14.660Z,43.30
2023-04-03T22:33:42.161Z,43.48
2023-04-03T22:36:10.149Z,43.79
2023-04-03T22:38:37.983Z,43.68
2023-04-03T22:41:06.239Z,43.51
2023-04-03T22:43:33.978Z,43.81
2023-04-03T22:46:01.695Z,43.79
2023-04-03T22:48:28.919Z,43.54
2023-04-03T22:50:56.128Z,43.67
2023-04-03T22:53:23.612Z,43.61
2023-04-03T22:55:59.759Z,43.47
2023-04-03T22:58:27.022Z,43.61
2023-04-03T23:00:54.564Z,43.76
2023-04-03T23:03:23.606Z,43.55
2023-04-03T23:05:53.680Z,43.44
2023-04-03T23:08:20.638Z,43.61
2023-04-03T23:10:48.015Z,43.50
2023-04-03T23:13:15.054Z,43.43
2023-04-03T23:15:42.099Z,43.50
2023-04-03T23:18:09.138Z,43.54
2023-04-03T23:20:36.155Z,43.76
2023-04-03T23:23:04.485Z,43.36
2023-04-03T23:25:31.439Z,43.64
2023-04-03T23:27:58.544Z,43.64
2023-04-03T23:30:25.752Z,43.53
2023-04-03T23:32:52.643Z,43.60
2023-04-03T23:35:19.586Z,43.29
2023-04-03T23:37:46.674Z,43.29
2023-04-03T23:40:13.625Z,43.51
2023-04-03T23:42:40.515Z,43.50
2023-04-03T23:45:08.031Z,43.65
2023-04-03T23:47:37.736Z,43.49
2023-04-03T23:50:04.874Z,43.75
2023-04-03T23:52:31.902Z,43.75
2023-04-03T23:54:59.086Z,43.82
2023-04-03T23:57:25.942Z,43.73
2023-04-03T23:59:52.863Z,43.53
